Ladle Cove, Canada
Current Conditions -  °F | °C
As of 5:00 PM on Monday 26 Jan 2015 (Local Time) from CYQX Reporting Station
Blowing Snow Blowing Snow  
Wind Chill:   Ceiling: Unl
Heat Index: 19°   Visibility: 20mi
Dew Point:   Wind: 21mph
Humidity: 58%   Direction: 260°W
Pressure: 29.89"   Gusts: 33mph
Location:  49.45°N, 54.05°W
Report Text: CYQX 262000Z 26018G29KT 20SM DRSN FEW035 M07/M14 A2989 RMK SC1 PRESRR SLP132
Loading
Personal Weather Stations






























Interactive Weather Map New forecast layout! Learn more

10-Day Weather Forecast

Advertisements
Track Severe Weather on mobile